createdAt,value
2022-10-28T00:00:37.523Z,12.52
2022-10-28T00:05:40.957Z,12.43
2022-10-28T00:10:43.254Z,12.56
2022-10-28T00:15:45.276Z,12.43
2022-10-28T00:20:48.777Z,12.39
2022-10-28T00:25:50.804Z,12.43
2022-10-28T00:30:52.422Z,12.33
2022-10-28T00:35:55.764Z,12.42
2022-10-28T00:40:57.692Z,12.38
2022-10-28T00:45:59.839Z,12.42
2022-10-28T00:51:03.541Z,12.44
2022-10-28T00:56:07.409Z,12.56
2022-10-28T01:01:09.351Z,12.66
2022-10-28T01:06:13.349Z,12.78
2022-10-28T01:11:40.840Z,12.75
2022-10-28T01:16:57.469Z,12.86
2022-10-28T01:22:10.814Z,12.80
2022-10-28T01:27:43.687Z,12.66
2022-10-28T01:32:58.144Z,12.42
2022-10-28T01:38:27.367Z,12.16
2022-10-28T01:43:34.812Z,11.95
2022-10-28T01:48:45.483Z,11.83
2022-10-28T01:53:51.699Z,11.86
2022-10-28T01:58:56.097Z,11.97
2022-10-28T02:03:59.724Z,12.08
2022-10-28T02:09:12.591Z,12.18
2022-10-28T02:14:48.392Z,12.18
2022-10-28T02:20:00.969Z,12.02
2022-10-28T02:25:08.227Z,11.98
2022-10-28T02:30:15.197Z,11.85
2022-10-28T02:35:23.281Z,11.78
2022-10-28T02:40:28.148Z,11.62
2022-10-28T02:45:35.292Z,11.55
2022-10-28T02:50:43.976Z,11.47
2022-10-28T02:55:50.993Z,11.36
2022-10-28T03:00:53.320Z,11.34
2022-10-28T03:05:56.767Z,11.18
2022-10-28T03:10:58.651Z,11.04
2022-10-28T03:16:00.646Z,11.01
2022-10-28T03:21:04.170Z,10.87
2022-10-28T03:26:07.318Z,10.81
2022-10-28T03:31:09.364Z,10.66
2022-10-28T03:36:12.892Z,10.74
2022-10-28T03:41:14.703Z,10.79
2022-10-28T03:46:17.163Z,10.72
2022-10-28T03:51:20.728Z,10.53
2022-10-28T03:56:22.922Z,10.46
2022-10-28T04:01:25.127Z,10.43
2022-10-28T04:06:28.523Z,10.37
2022-10-28T04:11:30.529Z,10.36
2022-10-28T04:16:32.159Z,10.36
2022-10-28T04:21:35.246Z,10.22
2022-10-28T04:26:37.273Z,10.10
2022-10-28T04:31:39.303Z,10.04
2022-10-28T04:36:42.739Z,10.05
2022-10-28T04:41:44.904Z,10.14
2022-10-28T04:46:47.315Z,10.10
2022-10-28T04:51:50.721Z,10.09
2022-10-28T04:56:53.914Z,10.02
2022-10-28T05:01:56.264Z,10.03
2022-10-28T05:06:59.710Z,10.06
2022-10-28T05:12:01.770Z,9.93
2022-10-28T05:17:03.819Z,9.89
2022-10-28T05:22:07.146Z,9.85
2022-10-28T05:27:09.383Z,10.01
2022-10-28T05:32:11.583Z,10.08
2022-10-28T05:37:15.210Z,10.10
2022-10-28T05:42:17.309Z,10.21
2022-10-28T05:47:19.657Z,10.30
2022-10-28T05:52:23.168Z,10.35
2022-10-28T05:57:24.788Z,10.42
2022-10-28T06:02:26.945Z,10.52
2022-10-28T06:07:30.248Z,10.77
2022-10-28T06:12:30.696Z,10.91
2022-10-28T06:17:32.409Z,10.97
2022-10-28T06:22:35.746Z,11.18
2022-10-28T06:27:37.785Z,11.48
2022-10-28T06:32:39.877Z,11.65
2022-10-28T06:37:43.555Z,11.86
2022-10-28T06:42:45.418Z,11.95
2022-10-28T06:47:48.821Z,11.98
2022-10-28T06:52:52.646Z,12.12
2022-10-28T06:57:58.723Z,12.27
2022-10-28T07:03:01.155Z,12.40
2022-10-28T07:08:05.550Z,12.48
2022-10-28T07:13:07.405Z,12.61
2022-10-28T07:18:09.594Z,12.84
2022-10-28T07:23:13.005Z,12.98
2022-10-28T07:28:15.026Z,13.20
2022-10-28T07:33:17.850Z,13.51
2022-10-28T07:38:20.994Z,13.68
2022-10-28T07:43:23.100Z,13.61
2022-10-28T07:48:25.489Z,13.61
2022-10-28T07:53:29.538Z,13.69
2022-10-28T07:58:31.909Z,13.90
2022-10-28T08:03:38.625Z,14.09
2022-10-28T08:08:42.839Z,14.33
2022-10-28T08:13:45.359Z,14.50
2022-10-28T08:18:47.448Z,14.71
2022-10-28T08:23:50.879Z,15.04
2022-10-28T08:28:53.102Z,15.32
2022-10-28T08:33:54.861Z,15.85
2022-10-28T08:38:58.348Z,16.09
2022-10-28T08:44:27.158Z,16.38
2022-10-28T08:49:33.245Z,16.32
2022-10-28T08:54:43.125Z,16.48
2022-10-28T08:59:46.507Z,17.10
2022-10-28T09:04:51.696Z,17.26
2022-10-28T09:09:56.105Z,17.49
2022-10-28T09:15:12.301Z,17.77
2022-10-28T09:20:19.381Z,17.93
2022-10-28T09:25:28.400Z,18.34
2022-10-28T09:30:40.488Z,18.78
2022-10-28T09:35:44.770Z,19.24
2022-10-28T09:40:52.875Z,19.82
2022-10-28T09:46:00.481Z,20.12
2022-10-28T09:51:02.975Z,20.50
2022-10-28T10:01:15.659Z,21.19
2022-10-28T10:06:20.243Z,25.47
2022-10-28T10:11:30.861Z,24.74
2022-10-28T10:16:40.897Z,27.03
2022-10-28T10:21:47.815Z,27.31
2022-10-28T10:26:51.381Z,27.71
2022-10-28T10:32:16.855Z,29.84
2022-10-28T10:37:21.440Z,29.96
2022-10-28T10:42:24.895Z,28.95
2022-10-28T10:47:27.175Z,29.13
2022-10-28T10:52:29.453Z,30.37
2022-10-28T10:57:34.548Z,28.81
2022-10-28T11:02:39.212Z,29.41
2022-10-28T11:07:47.170Z,27.91
2022-10-28T11:12:54.582Z,25.63
2022-10-28T11:17:59.745Z,24.77
2022-10-28T11:23:17.593Z,24.14
2022-10-28T11:28:34.374Z,23.83
2022-10-28T11:33:44.861Z,23.76
2022-10-28T11:39:15.966Z,23.16
2022-10-28T11:44:33.119Z,23.73
2022-10-28T11:50:01.709Z,23.48
2022-10-28T11:55:18.312Z,23.79
2022-10-28T12:00:41.134Z,24.05
2022-10-28T12:05:47.639Z,24.03
2022-10-28T12:10:59.365Z,24.24
2022-10-28T12:16:11.450Z,24.54
2022-10-28T12:21:20.609Z,25.32
2022-10-28T12:26:35.824Z,25.60
2022-10-28T12:31:45.075Z,25.08
2022-10-28T12:36:50.725Z,24.18
2022-10-28T12:42:00.298Z,23.95
2022-10-28T12:47:16.939Z,23.81
2022-10-28T12:52:32.064Z,23.89
2022-10-28T12:57:36.949Z,23.73
2022-10-28T13:02:47.435Z,23.75
2022-10-28T13:08:17.566Z,24.12
2022-10-28T13:13:43.758Z,24.39
2022-10-28T13:19:15.663Z,24.25
2022-10-28T13:24:21.621Z,24.40
2022-10-28T13:34:34.112Z,24.01
2022-10-28T13:39:43.629Z,23.93
2022-10-28T13:44:50.086Z,24.04
2022-10-28T13:50:40.948Z,24.02
2022-10-28T13:55:45.140Z,23.91
2022-10-28T14:00:50.494Z,23.84
2022-10-28T14:05:57.464Z,23.71
2022-10-28T14:11:04.369Z,23.75
2022-10-28T14:16:21.919Z,23.56
2022-10-28T14:21:24.461Z,23.63
2022-10-28T14:26:27.437Z,23.38
2022-10-28T14:31:43.211Z,22.97
2022-10-28T14:36:53.518Z,22.97
2022-10-28T14:42:22.735Z,22.85
2022-10-28T14:47:44.174Z,22.64
2022-10-28T14:52:48.085Z,22.38
2022-10-28T14:57:51.464Z,22.17
2022-10-28T15:02:55.306Z,21.90
2022-10-28T15:08:03.084Z,21.59
2022-10-28T15:13:06.936Z,21.36
2022-10-28T15:18:22.066Z,21.12
2022-10-28T15:23:24.614Z,20.95
2022-10-28T15:28:27.817Z,20.71
2022-10-28T15:33:30.909Z,20.62
2022-10-28T15:38:38.405Z,20.37
2022-10-28T15:43:41.849Z,20.19
2022-10-28T15:48:44.107Z,20.00
2022-10-28T15:53:46.519Z,19.72
2022-10-28T15:59:03.470Z,19.29
2022-10-28T16:04:06.349Z,18.93
2022-10-28T16:09:18.076Z,18.61
2022-10-28T16:14:32.067Z,18.40
2022-10-28T16:19:37.936Z,18.27
2022-10-28T16:24:40.027Z,18.21
2022-10-28T16:29:43.407Z,18.04
2022-10-28T16:34:45.543Z,17.81
2022-10-28T16:39:47.307Z,17.62
2022-10-28T16:44:51.185Z,17.43
2022-10-28T16:49:57.248Z,17.32
2022-10-28T16:55:00.430Z,17.16
2022-10-28T17:00:04.643Z,17.24
2022-10-28T17:05:14.851Z,17.68
2022-10-28T17:10:18.211Z,18.08
2022-10-28T17:15:21.233Z,18.21
2022-10-28T17:20:23.312Z,18.24
2022-10-28T17:25:25.270Z,18.15
2022-10-28T17:30:28.483Z,18.07
2022-10-28T17:35:30.430Z,17.95
2022-10-28T17:40:32.466Z,17.86
2022-10-28T17:45:36.033Z,17.82
2022-10-28T17:50:38.281Z,17.65
2022-10-28T17:55:40.329Z,17.59
2022-10-28T18:00:43.755Z,17.62
2022-10-28T18:05:45.782Z,17.73
2022-10-28T18:10:51.800Z,17.57
2022-10-28T18:15:54.868Z,17.52
2022-10-28T18:20:57.165Z,17.52
2022-10-28T18:25:59.333Z,17.33
2022-10-28T18:31:03.335Z,17.17
2022-10-28T18:36:07.338Z,17.06
2022-10-28T18:41:11.451Z,17.01
2022-10-28T18:46:15.167Z,16.94
2022-10-28T18:51:17.366Z,16.77
2022-10-28T18:56:21.056Z,16.61
2022-10-28T19:01:26.330Z,16.54
2022-10-28T19:06:30.897Z,16.59
2022-10-28T19:11:34.156Z,16.43
2022-10-28T19:16:37.771Z,16.40
2022-10-28T19:21:39.975Z,16.31
2022-10-28T19:26:42.203Z,16.17
2022-10-28T19:31:45.842Z,16.14
2022-10-28T19:36:47.810Z,16.04
2022-10-28T19:41:49.679Z,15.80
2022-10-28T19:46:53.160Z,15.67
2022-10-28T19:51:55.398Z,15.45
2022-10-28T19:56:57.148Z,15.22
2022-10-28T20:02:00.380Z,15.03
2022-10-28T20:07:02.345Z,14.92
2022-10-28T20:12:04.814Z,14.72
2022-10-28T20:17:08.432Z,14.58
2022-10-28T20:22:10.240Z,14.42
2022-10-28T20:27:12.343Z,14.31
2022-10-28T20:32:16.941Z,14.23
2022-10-28T20:37:19.044Z,14.19
2022-10-28T20:42:21.521Z,14.12
2022-10-28T20:47:24.653Z,14.03
2022-10-28T20:52:26.656Z,13.97
2022-10-28T20:57:28.313Z,13.97
2022-10-28T21:02:31.464Z,13.95
2022-10-28T21:07:33.451Z,13.92
2022-10-28T21:12:35.242Z,13.84
2022-10-28T21:17:38.360Z,13.77
2022-10-28T21:22:40.570Z,13.77
2022-10-28T21:27:42.979Z,13.74
2022-10-28T21:32:46.294Z,13.68
2022-10-28T21:37:48.269Z,13.77
2022-10-28T21:42:50.350Z,13.74
2022-10-28T21:47:55.895Z,13.67
2022-10-28T21:52:59.719Z,13.81
2022-10-28T21:58:04.173Z,13.78
2022-10-28T22:03:07.755Z,13.73
2022-10-28T22:08:10.060Z,13.64
2022-10-28T22:13:12.196Z,13.59
2022-10-28T22:18:15.429Z,13.58
2022-10-28T22:23:17.564Z,13.51
2022-10-28T22:28:19.658Z,13.53
2022-10-28T22:33:23.244Z,13.52
2022-10-28T22:38:25.937Z,13.54
2022-10-28T22:43:27.932Z,13.57
2022-10-28T22:48:31.841Z,13.68
2022-10-28T22:53:33.792Z,13.82
2022-10-28T22:58:35.900Z,13.94
2022-10-28T23:03:41.134Z,14.03
2022-10-28T23:08:44.545Z,14.02
2022-10-28T23:13:49.724Z,14.05
2022-10-28T23:18:53.246Z,14.05
2022-10-28T23:23:56.858Z,14.10
2022-10-28T23:28:59.985Z,14.01
2022-10-28T23:34:03.348Z,13.98
2022-10-28T23:39:05.372Z,13.88
2022-10-28T23:44:07.524Z,13.79
2022-10-28T23:49:10.888Z,13.71
2022-10-28T23:54:12.706Z,13.56
2022-10-28T23:59:14.861Z,13.51
